Time,TemperatureF,DewpointF,PressureIn,WindDirection,WindDirectionDegrees,WindSpeedMPH,WindSpeedGustMPH,Humidity,HourlyPrecipIn,Conditions,Clouds,dailyrainin,SoftwareType,DateUTC
2013-01-11 00:00:00,30.4,25.6,30.52,NNE,22,0.0,0.0,82,0.00,,---,0.00,VWS V14.01,2013-01-11 05:00:00,
2013-01-11 00:15:00,30.3,25.8,30.52,NNE,22,0.0,1.0,83,0.00,,---,0.00,VWS V14.01,2013-01-11 05:15:00,
2013-01-11 00:30:00,30.4,25.9,30.52,NNE,22,0.0,1.0,83,0.00,,---,0.00,VWS V14.01,2013-01-11 05:30:00,
2013-01-11 00:45:00,30.4,25.9,30.51,NNE,22,0.0,0.0,83,0.00,,---,0.00,VWS V14.01,2013-01-11 05:45:00,
2013-01-11 01:00:00,30.3,26.1,30.51,NNE,22,0.0,1.0,84,0.00,,---,0.00,VWS V14.01,2013-01-11 06:00:00,
2013-01-11 01:15:00,30.3,26.1,30.50,NNE,22,0.0,0.0,84,0.00,,---,0.00,VWS V14.01,2013-01-11 06:15:00,
2013-01-11 01:30:00,30.1,25.9,30.50,NNE,22,0.0,1.0,84,0.00,,---,0.00,VWS V14.01,2013-01-11 06:30:00,
2013-01-11 01:45:00,30.1,26.1,30.49,NNE,22,0.0,0.0,85,0.00,,---,0.00,VWS V14.01,2013-01-11 06:45:00,
2013-01-11 02:00:00,30.1,26.1,30.49,NNE,22,0.0,0.0,85,0.00,,---,0.00,VWS V14.01,2013-01-11 07:00:00,
2013-01-11 02:15:00,30.0,26.0,30.50,NNE,22,0.0,0.0,85,0.00,,---,0.00,VWS V14.01,2013-01-11 07:15:00,
2013-01-11 02:30:00,30.4,26.7,30.48,NNE,22,0.0,1.0,86,0.00,,---,0.00,VWS V14.01,2013-01-11 07:30:00,
2013-01-11 02:45:00,30.3,26.3,30.48,NNE,22,0.0,0.0,85,0.00,,---,0.00,VWS V14.01,2013-01-11 07:45:00,
2013-01-11 03:00:00,30.4,26.7,30.48,NNE,22,0.0,0.0,86,0.00,,---,0.00,VWS V14.01,2013-01-11 08:00:00,
2013-01-11 03:15:00,30.7,27.0,30.48,NNE,22,0.0,1.0,86,0.00,,---,0.00,VWS V14.01,2013-01-11 08:15:00,
2013-01-11 03:30:00,31.2,27.5,30.46,NNE,22,0.0,1.0,86,0.00,,---,0.00,VWS V14.01,2013-01-11 08:30:00,
2013-01-11 03:45:00,31.3,27.6,30.45,NNE,22,0.0,1.0,86,0.00,,---,0.00,VWS V14.01,2013-01-11 08:45:00,
2013-01-11 04:00:00,31.2,27.2,30.46,NNE,22,0.0,1.0,85,0.00,,---,0.00,VWS V14.01,2013-01-11 09:00:00,
2013-01-11 04:15:00,31.2,27.5,30.46,NNE,22,0.0,0.0,86,0.00,,---,0.00,VWS V14.01,2013-01-11 09:15:00,
2013-01-11 04:30:00,31.2,27.5,30.45,NNE,22,0.0,0.0,86,0.00,,---,0.00,VWS V14.01,2013-01-11 09:30:00,
2013-01-11 04:45:00,31.3,27.6,30.45,NNE,22,0.0,1.0,86,0.00,,---,0.00,VWS V14.01,2013-01-11 09:45:00,
2013-01-11 05:00:00,31.2,27.5,30.45,NNE,22,0.0,0.0,86,0.00,,---,0.00,VWS V14.01,2013-01-11 10:00:00,
2013-01-11 05:15:00,31.3,27.6,30.45,NNE,22,0.0,0.0,86,0.00,,---,0.00,VWS V14.01,2013-01-11 10:15:00,
2013-01-11 05:30:00,31.6,27.9,30.45,NNE,22,0.0,0.0,86,0.00,,---,0.00,VWS V14.01,2013-01-11 10:30:00,
2013-01-11 05:45:00,31.8,27.8,30.45,NNE,22,0.0,0.0,85,0.00,,---,0.00,VWS V14.01,2013-01-11 10:45:00,
2013-01-11 06:00:00,31.8,27.8,30.45,NNE,22,0.0,1.0,85,0.00,,---,0.00,VWS V14.01,2013-01-11 11:00:00,
2013-01-11 06:15:00,32.1,28.4,30.46,NNE,22,0.0,1.0,86,0.00,,---,0.00,VWS V14.01,2013-01-11 11:15:00,
2013-01-11 06:30:00,32.1,28.1,30.46,NNE,22,0.0,0.0,85,0.00,,---,0.00,VWS V14.01,2013-01-11 11:30:00,
2013-01-11 06:45:00,31.8,27.8,30.46,NNE,22,0.0,0.0,85,0.00,,---,0.00,VWS V14.01,2013-01-11 11:45:00,
2013-01-11 07:00:00,31.0,27.0,30.45,NNE,22,0.0,1.0,85,0.00,,---,0.00,VWS V14.01,2013-01-11 12:00:00,
2013-01-11 07:15:00,30.7,27.0,30.45,NNE,22,0.0,0.0,86,0.00,,---,0.00,VWS V14.01,2013-01-11 12:15:00,
2013-01-11 07:30:00,30.6,26.9,30.45,NNE,22,0.0,0.0,86,0.00,,---,0.00,VWS V14.01,2013-01-11 12:30:00,
2013-01-11 07:45:00,30.7,27.3,30.45,NNE,22,0.0,1.0,87,0.00,,---,0.00,VWS V14.01,2013-01-11 12:45:00,
2013-01-11 08:00:00,31.3,27.3,30.44,NNE,22,0.0,1.0,85,0.00,,---,0.00,VWS V14.01,2013-01-11 13:00:00,
2013-01-11 08:15:00,31.6,27.6,30.44,NNE,22,0.0,1.0,85,0.00,,---,0.00,VWS V14.01,2013-01-11 13:15:00,
2013-01-11 08:30:00,32.1,28.1,30.44,NNE,22,0.0,0.0,85,0.00,,---,0.00,VWS V14.01,2013-01-11 13:30:00,
2013-01-11 08:45:00,32.7,28.7,30.45,NNE,22,0.0,0.0,85,0.00,,---,0.00,VWS V14.01,2013-01-11 13:45:00,
2013-01-11 09:00:00,33.7,29.1,30.44,NNE,22,0.0,0.0,83,0.00,,---,0.00,VWS V14.01,2013-01-11 14:00:00,
2013-01-11 09:15:00,34.0,29.4,30.45,NNE,22,0.0,2.0,83,0.00,,---,0.00,VWS V14.01,2013-01-11 14:15:00,
2013-01-11 09:30:00,34.4,29.8,30.44,NNE,22,0.0,0.0,83,0.00,,---,0.00,VWS V14.01,2013-01-11 14:30:00,
2013-01-11 09:45:00,35.0,29.8,30.44,NNE,22,0.0,1.0,81,0.00,,---,0.00,VWS V14.01,2013-01-11 14:45:00,
2013-01-11 10:00:00,35.8,30.2,30.42,NNE,22,0.0,0.0,80,0.00,,---,0.00,VWS V14.01,2013-01-11 15:00:00,
2013-01-11 10:15:00,36.8,28.6,30.40,NNE,22,0.0,1.0,72,0.00,,---,0.00,VWS V14.01,2013-01-11 15:15:00,
2013-01-11 10:30:00,38.3,29.0,30.39,NNE,22,0.0,1.0,69,0.00,,---,0.00,VWS V14.01,2013-01-11 15:30:00,
2013-01-11 10:45:00,39.6,30.6,30.40,NNE,22,0.0,2.0,70,0.00,,---,0.00,VWS V14.01,2013-01-11 15:45:00,
2013-01-11 11:00:00,40.2,30.9,30.38,East,90,1.0,5.0,69,0.00,,---,0.00,VWS V14.01,2013-01-11 16:00:00,
2013-01-11 11:15:00,40.6,31.2,30.37,ESE,112,1.0,4.0,69,0.00,,---,0.00,VWS V14.01,2013-01-11 16:15:00,
2013-01-11 11:30:00,40.3,31.0,30.36,SSE,158,1.0,5.0,69,0.00,,---,0.00,VWS V14.01,2013-01-11 16:30:00,
2013-01-11 11:45:00,40.3,31.0,30.34,East,90,1.0,5.0,69,0.00,,---,0.00,VWS V14.01,2013-01-11 16:45:00,
2013-01-11 12:00:00,41.1,31.7,30.35,East,90,1.0,6.0,69,0.00,,---,0.00,VWS V14.01,2013-01-11 17:00:00,
2013-01-11 12:15:00,41.1,31.7,30.33,East,90,1.0,5.0,69,0.00,,---,0.00,VWS V14.01,2013-01-11 17:15:00,
2013-01-11 12:30:00,41.2,32.2,30.32,ESE,112,1.0,5.0,70,0.00,,---,0.00,VWS V14.01,2013-01-11 17:30:00,
2013-01-11 12:45:00,41.3,32.6,30.32,South,180,1.0,4.0,71,0.00,,---,0.00,VWS V14.01,2013-01-11 17:45:00,
2013-01-11 13:00:00,41.3,32.3,30.31,East,90,1.0,5.0,70,0.00,,---,0.00,VWS V14.01,2013-01-11 18:00:00,
2013-01-11 13:15:00,41.6,32.9,30.30,SSE,158,0.0,4.0,71,0.00,,---,0.00,VWS V14.01,2013-01-11 18:15:00,
2013-01-11 13:30:00,42.9,34.2,30.29,East,90,1.0,5.0,71,0.00,,---,0.00,VWS V14.01,2013-01-11 18:30:00,
2013-01-11 13:45:00,44.1,35.0,30.29,East,90,2.0,9.0,70,0.00,,---,0.00,VWS V14.01,2013-01-11 18:45:00,
2013-01-11 14:00:00,44.3,34.8,30.27,East,90,2.0,9.0,69,0.00,,---,0.00,VWS V14.01,2013-01-11 19:00:00,
2013-01-11 14:15:00,44.9,36.1,30.27,SSE,158,1.0,7.0,71,0.00,,---,0.00,VWS V14.01,2013-01-11 19:15:00,
2013-01-11 14:30:00,44.6,36.2,30.26,East,90,2.0,5.0,72,0.00,,---,0.00,VWS V14.01,2013-01-11 19:30:00,
2013-01-11 14:45:00,44.6,36.2,30.25,East,90,2.0,6.0,72,0.00,,---,0.00,VWS V14.01,2013-01-11 19:45:00,
2013-01-11 15:00:00,45.1,36.6,30.24,East,90,1.0,4.0,72,0.00,,---,0.00,VWS V14.01,2013-01-11 20:00:00,
2013-01-11 15:15:00,45.1,36.6,30.25,East,90,1.0,4.0,72,0.00,,---,0.00,VWS V14.01,2013-01-11 20:15:00,
2013-01-11 15:30:00,45.1,37.0,30.25,ESE,112,1.0,3.0,73,0.00,,---,0.00,VWS V14.01,2013-01-11 20:30:00,
2013-01-11 15:45:00,44.9,37.1,30.23,East,90,1.0,5.0,74,0.00,,---,0.00,VWS V14.01,2013-01-11 20:45:00,
2013-01-11 16:00:00,44.8,37.7,30.23,East,90,1.0,4.0,76,0.00,,---,0.00,VWS V14.01,2013-01-11 21:00:00,
2013-01-11 16:15:00,44.5,38.1,30.22,ESE,112,0.0,3.0,78,0.00,,---,0.00,VWS V14.01,2013-01-11 21:15:00,
2013-01-11 16:30:00,44.1,39.0,30.22,ESE,112,0.0,1.0,82,0.01,,---,0.01,VWS V14.01,2013-01-11 21:30:00,
2013-01-11 16:45:00,43.6,40.0,30.21,SE,135,0.0,1.0,87,0.03,,---,0.03,VWS V14.01,2013-01-11 21:45:00,
2013-01-11 17:00:00,43.2,40.5,30.21,South,180,0.0,1.0,90,0.03,,---,0.03,VWS V14.01,2013-01-11 22:00:00,
2013-01-11 17:15:00,43.2,41.0,30.19,South,180,0.0,1.0,92,0.05,,---,0.05,VWS V14.01,2013-01-11 22:15:00,
2013-01-11 17:30:00,43.1,41.2,30.17,South,180,0.0,1.0,93,0.06,,---,0.06,VWS V14.01,2013-01-11 22:30:00,
2013-01-11 17:45:00,43.2,41.6,30.16,SSE,158,0.0,3.0,94,0.06,,---,0.07,VWS V14.01,2013-01-11 22:45:00,
2013-01-11 18:00:00,43.2,41.9,30.15,ENE,68,0.0,4.0,95,0.06,,---,0.09,VWS V14.01,2013-01-11 23:00:00,
2013-01-11 18:15:00,43.2,42.1,30.16,East,90,0.0,2.0,96,0.12,,---,0.15,VWS V14.01,2013-01-11 23:15:00,
2013-01-11 18:30:00,43.2,42.1,30.17,East,90,0.0,3.0,96,0.14,,---,0.19,VWS V14.01,2013-01-11 23:30:00,
2013-01-11 18:45:00,43.2,42.1,30.17,ENE,68,0.0,1.0,96,0.19,,---,0.25,VWS V14.01,2013-01-11 23:45:00,
2013-01-11 19:00:00,43.1,42.3,30.17,ENE,68,0.0,0.0,97,0.21,,---,0.28,VWS V14.01,2013-01-12 00:00:00,
2013-01-11 19:15:00,43.1,42.3,30.18,ENE,68,0.0,1.0,97,0.21,,---,0.30,VWS V14.01,2013-01-12 00:15:00,
2013-01-11 19:30:00,43.1,42.3,30.17,ENE,68,0.0,0.0,97,0.16,,---,0.31,VWS V14.01,2013-01-12 00:30:00,
2013-01-11 19:45:00,42.9,42.1,30.16,ENE,68,0.0,1.0,97,0.13,,---,0.32,VWS V14.01,2013-01-12 00:45:00,
2013-01-11 20:00:00,42.9,42.1,30.15,ENE,68,0.0,1.0,97,0.07,,---,0.32,VWS V14.01,2013-01-12 01:00:00,
2013-01-11 20:15:00,43.1,42.6,30.14,ENE,68,0.0,0.0,98,0.06,,---,0.34,VWS V14.01,2013-01-12 01:15:00,
2013-01-11 20:30:00,42.9,42.4,30.13,ENE,68,0.0,0.0,98,0.05,,---,0.35,VWS V14.01,2013-01-12 01:30:00,
2013-01-11 20:45:00,42.9,42.4,30.13,ENE,68,0.0,1.0,98,0.04,,---,0.35,VWS V14.01,2013-01-12 01:45:00,
2013-01-11 21:00:00,43.2,42.7,30.13,ENE,68,0.0,3.0,98,0.03,,---,0.35,VWS V14.01,2013-01-12 02:00:00,
2013-01-11 21:15:00,43.3,42.8,30.12,ENE,68,0.0,2.0,98,0.04,,---,0.36,VWS V14.01,2013-01-12 02:15:00,
2013-01-11 21:30:00,43.8,43.3,30.12,ENE,68,1.0,4.0,98,0.02,,---,0.36,VWS V14.01,2013-01-12 02:30:00,
2013-01-11 21:45:00,43.5,43.0,30.10,ENE,68,0.0,0.0,98,0.01,,---,0.36,VWS V14.01,2013-01-12 02:45:00,
2013-01-11 22:00:00,43.5,43.0,30.10,ENE,68,0.0,0.0,98,0.02,,---,0.37,VWS V14.01,2013-01-12 03:00:00,
2013-01-11 22:15:00,43.2,42.7,30.10,ENE,68,0.0,0.0,98,0.02,,---,0.37,VWS V14.01,2013-01-12 03:15:00,
2013-01-11 22:30:00,43.2,42.7,30.09,ENE,68,0.0,0.0,98,0.01,,---,0.37,VWS V14.01,2013-01-12 03:30:00,
2013-01-11 22:45:00,43.1,42.8,30.10,ENE,68,0.0,1.0,99,0.01,,---,0.37,VWS V14.01,2013-01-12 03:45:00,
2013-01-11 23:00:00,43.1,42.8,30.09,ENE,68,0.0,0.0,99,0.01,,---,0.37,VWS V14.01,2013-01-12 04:00:00,
2013-01-11 23:15:00,43.1,42.8,30.09,ENE,68,0.0,1.0,99,0.00,,---,0.37,VWS V14.01,2013-01-12 04:15:00,
2013-01-11 23:30:00,43.1,42.8,30.09,ENE,68,0.0,0.0,99,0.00,,---,0.37,VWS V14.01,2013-01-12 04:30:00,
2013-01-11 23:45:00,43.1,42.8,30.08,ENE,68,0.0,0.0,99,0.00,,---,0.37,VWS V14.01,2013-01-12 04:45:00,